sensor_id;sensor_type;location;lat;lon;timestamp;P1;durP1;ratioP1;P2;durP2;ratioP2
43801;SDS011;29429;51.074;13.764;2023-04-01T00:11:39;2.13;;;0.60;;
43801;SDS011;29429;51.074;13.764;2023-04-01T00:14:07;1.92;;;0.50;;
43801;SDS011;29429;51.074;13.764;2023-04-01T00:16:34;2.35;;;0.77;;
43801;SDS011;29429;51.074;13.764;2023-04-01T00:19:01;3.17;;;1.00;;
43801;SDS011;29429;51.074;13.764;2023-04-01T00:21:29;2.97;;;0.82;;
43801;SDS011;29429;51.074;13.764;2023-04-01T00:23:56;2.15;;;0.80;;
43801;SDS011;29429;51.074;13.764;2023-04-01T00:26:23;1.88;;;0.50;;
43801;SDS011;29429;51.074;13.764;2023-04-01T00:28:51;4.88;;;0.77;;
43801;SDS011;29429;51.074;13.764;2023-04-01T00:31:19;3.58;;;0.70;;
43801;SDS011;29429;51.074;13.764;2023-04-01T00:33:46;1.63;;;0.50;;
43801;SDS011;29429;51.074;13.764;2023-04-01T00:36:17;2.17;;;0.52;;
43801;SDS011;29429;51.074;13.764;2023-04-01T00:38:48;2.05;;;0.90;;
43801;SDS011;29429;51.074;13.764;2023-04-01T00:41:16;2.45;;;0.80;;
43801;SDS011;29429;51.074;13.764;2023-04-01T00:43:46;3.05;;;0.75;;
43801;SDS011;29429;51.074;13.764;2023-04-01T00:46:17;3.63;;;0.63;;
43801;SDS011;29429;51.074;13.764;2023-04-01T00:48:53;3.47;;;0.68;;
43801;SDS011;29429;51.074;13.764;2023-04-01T00:51:25;5.20;;;1.30;;
43801;SDS011;29429;51.074;13.764;2023-04-01T00:53:56;3.17;;;1.25;;
43801;SDS011;29429;51.074;13.764;2023-04-01T00:56:35;3.95;;;0.95;;
43801;SDS011;29429;51.074;13.764;2023-04-01T00:59:12;2.58;;;1.13;;
43801;SDS011;29429;51.074;13.764;2023-04-01T01:01:45;3.38;;;1.00;;
43801;SDS011;29429;51.074;13.764;2023-04-01T01:04:23;2.00;;;0.55;;
43801;SDS011;29429;51.074;13.764;2023-04-01T01:10:08;5.07;;;1.23;;
43801;SDS011;29429;51.074;13.764;2023-04-01T01:12:45;3.28;;;0.77;;
43801;SDS011;29429;51.074;13.764;2023-04-01T01:24:07;1.85;;;0.93;;
43801;SDS011;29429;51.074;13.764;2023-04-01T01:27:17;5.72;;;0.88;;
43801;SDS011;29429;51.074;13.764;2023-04-01T01:35:50;2.25;;;0.60;;
43801;SDS011;29429;51.074;13.764;2023-04-01T01:38:23;2.65;;;0.80;;
43801;SDS011;29429;51.074;13.764;2023-04-01T01:40:59;3.72;;;0.73;;
43801;SDS011;29429;51.074;13.764;2023-04-01T01:43:36;3.30;;;0.90;;
43801;SDS011;29429;51.074;13.764;2023-04-01T01:46:13;3.15;;;0.65;;
43801;SDS011;29429;51.074;13.764;2023-04-01T01:48:48;3.38;;;0.70;;
43801;SDS011;29429;51.074;13.764;2023-04-01T01:51:19;3.08;;;0.80;;
43801;SDS011;29429;51.074;13.764;2023-04-01T01:53:48;4.07;;;0.77;;
43801;SDS011;29429;51.074;13.764;2023-04-01T01:56:17;2.33;;;0.75;;
43801;SDS011;29429;51.074;13.764;2023-04-01T01:58:49;4.18;;;0.70;;
43801;SDS011;29429;51.074;13.764;2023-04-01T02:01:26;3.05;;;0.80;;
43801;SDS011;29429;51.074;13.764;2023-04-01T02:04:05;4.53;;;0.70;;
43801;SDS011;29429;51.074;13.764;2023-04-01T02:06:39;2.08;;;0.45;;
43801;SDS011;29429;51.074;13.764;2023-04-01T02:09:31;2.58;;;0.50;;
43801;SDS011;29429;51.074;13.764;2023-04-01T02:12:02;2.17;;;0.70;;
43801;SDS011;29429;51.074;13.764;2023-04-01T02:14:43;4.60;;;0.73;;
43801;SDS011;29429;51.074;13.764;2023-04-01T02:17:31;4.97;;;0.77;;
43801;SDS011;29429;51.074;13.764;2023-04-01T02:20:06;3.80;;;0.82;;
43801;SDS011;29429;51.074;13.764;2023-04-01T02:22:45;3.80;;;0.70;;
43801;SDS011;29429;51.074;13.764;2023-04-01T02:25:37;2.80;;;0.70;;
43801;SDS011;29429;51.074;13.764;2023-04-01T02:28:08;1.95;;;0.55;;
43801;SDS011;29429;51.074;13.764;2023-04-01T02:30:38;2.50;;;0.60;;
43801;SDS011;29429;51.074;13.764;2023-04-01T02:33:09;1.95;;;0.70;;
43801;SDS011;29429;51.074;13.764;2023-04-01T02:35:36;2.60;;;0.68;;
43801;SDS011;29429;51.074;13.764;2023-04-01T02:38:06;2.10;;;0.68;;
43801;SDS011;29429;51.074;13.764;2023-04-01T02:40:47;3.55;;;0.70;;
43801;SDS011;29429;51.074;13.764;2023-04-01T02:43:18;2.25;;;0.65;;
43801;SDS011;29429;51.074;13.764;2023-04-01T02:45:46;3.80;;;0.93;;
43801;SDS011;29429;51.074;13.764;2023-04-01T02:48:13;1.42;;;0.55;;
43801;SDS011;29429;51.074;13.764;2023-04-01T02:50:40;4.32;;;0.98;;
43801;SDS011;29429;51.074;13.764;2023-04-01T02:53:07;3.35;;;0.70;;
43801;SDS011;29429;51.074;13.764;2023-04-01T02:55:35;3.40;;;0.70;;
43801;SDS011;29429;51.074;13.764;2023-04-01T02:58:02;3.85;;;0.80;;
43801;SDS011;29429;51.074;13.764;2023-04-01T03:00:29;3.03;;;0.85;;
43801;SDS011;29429;51.074;13.764;2023-04-01T03:02:57;4.18;;;0.88;;
43801;SDS011;29429;51.074;13.764;2023-04-01T03:05:24;4.05;;;1.33;;
43801;SDS011;29429;51.074;13.764;2023-04-01T03:07:51;3.53;;;0.90;;
43801;SDS011;29429;51.074;13.764;2023-04-01T03:10:18;7.45;;;1.00;;
43801;SDS011;29429;51.074;13.764;2023-04-01T03:12:46;3.72;;;1.20;;
43801;SDS011;29429;51.074;13.764;2023-04-01T03:15:13;2.42;;;0.80;;
43801;SDS011;29429;51.074;13.764;2023-04-01T03:17:41;2.88;;;0.57;;
43801;SDS011;29429;51.074;13.764;2023-04-01T03:20:10;3.33;;;0.75;;
43801;SDS011;29429;51.074;13.764;2023-04-01T03:22:38;6.53;;;1.02;;
43801;SDS011;29429;51.074;13.764;2023-04-01T03:25:08;3.85;;;0.98;;
43801;SDS011;29429;51.074;13.764;2023-04-01T03:27:37;2.97;;;1.08;;
43801;SDS011;29429;51.074;13.764;2023-04-01T03:30:06;2.75;;;1.35;;
43801;SDS011;29429;51.074;13.764;2023-04-01T03:35:07;4.38;;;0.90;;
43801;SDS011;29429;51.074;13.764;2023-04-01T03:37:36;4.88;;;0.77;;
43801;SDS011;29429;51.074;13.764;2023-04-01T03:40:04;4.47;;;0.85;;
43801;SDS011;29429;51.074;13.764;2023-04-01T03:42:33;3.60;;;0.88;;
43801;SDS011;29429;51.074;13.764;2023-04-01T03:45:00;3.85;;;0.90;;
43801;SDS011;29429;51.074;13.764;2023-04-01T03:47:28;3.03;;;0.90;;
43801;SDS011;29429;51.074;13.764;2023-04-01T03:49:56;3.78;;;0.70;;
43801;SDS011;29429;51.074;13.764;2023-04-01T03:52:24;4.55;;;1.10;;
43801;SDS011;29429;51.074;13.764;2023-04-01T03:54:51;6.07;;;1.70;;
43801;SDS011;29429;51.074;13.764;2023-04-01T03:57:18;3.03;;;0.70;;
43801;SDS011;29429;51.074;13.764;2023-04-01T03:59:46;3.67;;;0.77;;
43801;SDS011;29429;51.074;13.764;2023-04-01T04:02:13;4.55;;;0.80;;
43801;SDS011;29429;51.074;13.764;2023-04-01T04:04:41;3.72;;;1.20;;
43801;SDS011;29429;51.074;13.764;2023-04-01T04:07:09;5.88;;;1.23;;
43801;SDS011;29429;51.074;13.764;2023-04-01T04:09:54;3.28;;;0.80;;
43801;SDS011;29429;51.074;13.764;2023-04-01T04:12:21;5.30;;;1.00;;
43801;SDS011;29429;51.074;13.764;2023-04-01T04:14:49;5.82;;;1.05;;
43801;SDS011;29429;51.074;13.764;2023-04-01T04:17:15;5.05;;;1.30;;
43801;SDS011;29429;51.074;13.764;2023-04-01T04:19:43;4.43;;;0.90;;
43801;SDS011;29429;51.074;13.764;2023-04-01T04:22:11;2.55;;;0.70;;
43801;SDS011;29429;51.074;13.764;2023-04-01T04:24:38;4.15;;;1.20;;
43801;SDS011;29429;51.074;13.764;2023-04-01T04:27:08;3.30;;;0.90;;
43801;SDS011;29429;51.074;13.764;2023-04-01T04:29:43;1.80;;;0.70;;
43801;SDS011;29429;51.074;13.764;2023-04-01T04:32:10;5.60;;;1.73;;
43801;SDS011;29429;51.074;13.764;2023-04-01T04:34:37;6.82;;;1.17;;
43801;SDS011;29429;51.074;13.764;2023-04-01T04:37:04;5.43;;;0.80;;
43801;SDS011;29429;51.074;13.764;2023-04-01T04:39:34;3.90;;;0.98;;
43801;SDS011;29429;51.074;13.764;2023-04-01T04:42:02;1.83;;;0.90;;
43801;SDS011;29429;51.074;13.764;2023-04-01T04:44:29;2.08;;;1.20;;
43801;SDS011;29429;51.074;13.764;2023-04-01T04:46:57;4.30;;;0.85;;
43801;SDS011;29429;51.074;13.764;2023-04-01T04:49:24;3.10;;;0.63;;
43801;SDS011;29429;51.074;13.764;2023-04-01T04:51:51;5.07;;;0.95;;
43801;SDS011;29429;51.074;13.764;2023-04-01T04:54:21;3.38;;;0.70;;
43801;SDS011;29429;51.074;13.764;2023-04-01T04:56:54;3.53;;;0.70;;
43801;SDS011;29429;51.074;13.764;2023-04-01T04:59:24;5.88;;;1.02;;
43801;SDS011;29429;51.074;13.764;2023-04-01T05:02:18;4.18;;;0.90;;
43801;SDS011;29429;51.074;13.764;2023-04-01T05:04:46;2.92;;;0.77;;
43801;SDS011;29429;51.074;13.764;2023-04-01T05:07:13;3.22;;;0.75;;
43801;SDS011;29429;51.074;13.764;2023-04-01T05:09:40;2.67;;;0.60;;
43801;SDS011;29429;51.074;13.764;2023-04-01T05:12:08;4.55;;;0.85;;
43801;SDS011;29429;51.074;13.764;2023-04-01T05:15:02;1.67;;;0.40;;
43801;SDS011;29429;51.074;13.764;2023-04-01T05:17:32;2.78;;;0.52;;
43801;SDS011;29429;51.074;13.764;2023-04-01T05:19:59;3.38;;;0.80;;
43801;SDS011;29429;51.074;13.764;2023-04-01T05:22:28;3.75;;;0.88;;
43801;SDS011;29429;51.074;13.764;2023-04-01T05:24:56;2.05;;;0.57;;
43801;SDS011;29429;51.074;13.764;2023-04-01T05:27:23;2.08;;;0.47;;
43801;SDS011;29429;51.074;13.764;2023-04-01T05:29:50;3.20;;;0.70;;
43801;SDS011;29429;51.074;13.764;2023-04-01T05:32:43;3.63;;;0.80;;
43801;SDS011;29429;51.074;13.764;2023-04-01T05:35:11;3.90;;;0.80;;
43801;SDS011;29429;51.074;13.764;2023-04-01T05:37:40;1.00;;;0.50;;
43801;SDS011;29429;51.074;13.764;2023-04-01T05:43:46;3.78;;;0.80;;
43801;SDS011;29429;51.074;13.764;2023-04-01T05:46:40;3.15;;;0.90;;
43801;SDS011;29429;51.074;13.764;2023-04-01T05:49:16;3.95;;;1.02;;
43801;SDS011;29429;51.074;13.764;2023-04-01T05:51:55;2.80;;;0.80;;
43801;SDS011;29429;51.074;13.764;2023-04-01T05:54:22;3.45;;;1.20;;
43801;SDS011;29429;51.074;13.764;2023-04-01T05:56:50;4.95;;;0.90;;
43801;SDS011;29429;51.074;13.764;2023-04-01T05:59:19;3.20;;;0.60;;
43801;SDS011;29429;51.074;13.764;2023-04-01T06:01:46;3.90;;;1.00;;
43801;SDS011;29429;51.074;13.764;2023-04-01T06:04:14;3.20;;;0.57;;
43801;SDS011;29429;51.074;13.764;2023-04-01T06:06:44;5.38;;;0.98;;
43801;SDS011;29429;51.074;13.764;2023-04-01T06:09:16;6.40;;;0.93;;
43801;SDS011;29429;51.074;13.764;2023-04-01T06:15:09;2.92;;;1.02;;
43801;SDS011;29429;51.074;13.764;2023-04-01T06:18:19;2.78;;;1.00;;
43801;SDS011;29429;51.074;13.764;2023-04-01T06:27:31;3.22;;;1.17;;
43801;SDS011;29429;51.074;13.764;2023-04-01T06:33:25;3.60;;;1.23;;
43801;SDS011;29429;51.074;13.764;2023-04-01T06:39:40;4.53;;;1.45;;
43801;SDS011;29429;51.074;13.764;2023-04-01T06:50:26;3.78;;;1.27;;
43801;SDS011;29429;51.074;13.764;2023-04-01T06:53:37;4.75;;;1.67;;
43801;SDS011;29429;51.074;13.764;2023-04-01T06:56:45;5.13;;;1.48;;
43801;SDS011;29429;51.074;13.764;2023-04-01T06:59:30;5.55;;;1.77;;
43801;SDS011;29429;51.074;13.764;2023-04-01T07:02:04;1.52;;;0.70;;
43801;SDS011;29429;51.074;13.764;2023-04-01T07:04:36;2.78;;;0.70;;
43801;SDS011;29429;51.074;13.764;2023-04-01T07:07:12;5.47;;;1.38;;
43801;SDS011;29429;51.074;13.764;2023-04-01T07:10:02;6.35;;;1.55;;
43801;SDS011;29429;51.074;13.764;2023-04-01T07:13:03;3.10;;;0.80;;
43801;SDS011;29429;51.074;13.764;2023-04-01T07:19:02;2.08;;;0.88;;
43801;SDS011;29429;51.074;13.764;2023-04-01T07:21:48;4.35;;;1.00;;
43801;SDS011;29429;51.074;13.764;2023-04-01T07:24:53;4.05;;;0.90;;
43801;SDS011;29429;51.074;13.764;2023-04-01T07:27:22;2.40;;;0.80;;
43801;SDS011;29429;51.074;13.764;2023-04-01T07:29:51;3.13;;;0.98;;
43801;SDS011;29429;51.074;13.764;2023-04-01T07:38:14;4.35;;;1.10;;
43801;SDS011;29429;51.074;13.764;2023-04-01T07:44:16;2.58;;;0.57;;
43801;SDS011;29429;51.074;13.764;2023-04-01T07:55:59;2.15;;;0.80;;
43801;SDS011;29429;51.074;13.764;2023-04-01T07:58:55;3.60;;;1.00;;
43801;SDS011;29429;51.074;13.764;2023-04-01T08:05:28;3.22;;;0.60;;
43801;SDS011;29429;51.074;13.764;2023-04-01T08:08:31;2.40;;;0.73;;
43801;SDS011;29429;51.074;13.764;2023-04-01T08:18:20;3.35;;;0.85;;
43801;SDS011;29429;51.074;13.764;2023-04-01T08:21:23;1.55;;;0.60;;
43801;SDS011;29429;51.074;13.764;2023-04-01T08:24:06;2.45;;;0.80;;
43801;SDS011;29429;51.074;13.764;2023-04-01T08:26:49;2.53;;;0.93;;
43801;SDS011;29429;51.074;13.764;2023-04-01T08:29:33;3.08;;;1.23;;
43801;SDS011;29429;51.074;13.764;2023-04-01T08:32:12;4.05;;;1.85;;
43801;SDS011;29429;51.074;13.764;2023-04-01T08:34:54;2.33;;;0.80;;
43801;SDS011;29429;51.074;13.764;2023-04-01T08:37:55;1.40;;;0.60;;
43801;SDS011;29429;51.074;13.764;2023-04-01T08:40:39;2.85;;;1.00;;
43801;SDS011;29429;51.074;13.764;2023-04-01T08:46:55;3.15;;;0.60;;
43801;SDS011;29429;51.074;13.764;2023-04-01T09:02:44;4.60;;;0.90;;
43801;SDS011;29429;51.074;13.764;2023-04-01T09:08:52;3.67;;;1.80;;
43801;SDS011;29429;51.074;13.764;2023-04-01T09:21:34;1.70;;;0.70;;
43801;SDS011;29429;51.074;13.764;2023-04-01T09:24:24;4.00;;;1.20;;
43801;SDS011;29429;51.074;13.764;2023-04-01T09:27:05;1.70;;;0.82;;
43801;SDS011;29429;51.074;13.764;2023-04-01T09:38:42;3.00;;;0.60;;
43801;SDS011;29429;51.074;13.764;2023-04-01T09:44:44;1.65;;;0.70;;
43801;SDS011;29429;51.074;13.764;2023-04-01T09:47:37;1.83;;;0.57;;
43801;SDS011;29429;51.074;13.764;2023-04-01T09:50:33;1.63;;;0.80;;
43801;SDS011;29429;51.074;13.764;2023-04-01T10:02:35;2.50;;;0.68;;
43801;SDS011;29429;51.074;13.764;2023-04-01T10:12:56;2.22;;;0.75;;
43801;SDS011;29429;51.074;13.764;2023-04-01T10:16:34;3.67;;;1.52;;
43801;SDS011;29429;51.074;13.764;2023-04-01T10:19:00;4.82;;;1.23;;
43801;SDS011;29429;51.074;13.764;2023-04-01T10:42:43;2.97;;;0.88;;
43801;SDS011;29429;51.074;13.764;2023-04-01T10:56:32;4.63;;;0.95;;
43801;SDS011;29429;51.074;13.764;2023-04-01T10:59:31;1.65;;;0.50;;
43801;SDS011;29429;51.074;13.764;2023-04-01T11:13:20;2.33;;;0.85;;
43801;SDS011;29429;51.074;13.764;2023-04-01T11:22:41;3.03;;;1.17;;
43801;SDS011;29429;51.074;13.764;2023-04-01T11:41:13;2.30;;;0.70;;
43801;SDS011;29429;51.074;13.764;2023-04-01T12:01:52;2.72;;;0.80;;
43801;SDS011;29429;51.074;13.764;2023-04-01T12:04:46;1.58;;;0.70;;
43801;SDS011;29429;51.074;13.764;2023-04-01T12:14:23;1.77;;;0.38;;
43801;SDS011;29429;51.074;13.764;2023-04-01T12:34:53;1.25;;;0.50;;
43801;SDS011;29429;51.074;13.764;2023-04-01T13:29:57;1.13;;;0.57;;
43801;SDS011;29429;51.074;13.764;2023-04-01T13:44:15;0.57;;;0.20;;
43801;SDS011;29429;51.074;13.764;2023-04-01T13:59:26;3.80;;;1.25;;
43801;SDS011;29429;51.074;13.764;2023-04-01T14:07:50;1.55;;;0.52;;
43801;SDS011;29429;51.074;13.764;2023-04-01T14:11:02;2.90;;;0.60;;
43801;SDS011;29429;51.074;13.764;2023-04-01T14:17:30;1.20;;;0.50;;
43801;SDS011;29429;51.074;13.764;2023-04-01T14:23:39;0.75;;;0.30;;
43801;SDS011;29429;51.074;13.764;2023-04-01T14:26:22;1.25;;;0.60;;
43801;SDS011;29429;51.074;13.764;2023-04-01T16:12:40;4.00;;;1.50;;
43801;SDS011;29429;51.074;13.764;2023-04-01T16:32:54;2.60;;;0.57;;
43801;SDS011;29429;51.074;13.764;2023-04-01T17:20:45;1.45;;;0.93;;
43801;SDS011;29429;51.074;13.764;2023-04-01T17:46:55;1.98;;;1.25;;
43801;SDS011;29429;51.074;13.764;2023-04-01T17:49:57;2.33;;;1.23;;
43801;SDS011;29429;51.074;13.764;2023-04-01T18:09:01;1.48;;;0.55;;
43801;SDS011;29429;51.074;13.764;2023-04-01T18:18:40;1.02;;;0.60;;
43801;SDS011;29429;51.074;13.764;2023-04-01T18:28:44;0.50;;;0.40;;
43801;SDS011;29429;51.074;13.764;2023-04-01T18:37:35;0.40;;;0.40;;
43801;SDS011;29429;51.074;13.764;2023-04-01T18:47:36;1.52;;;0.60;;
43801;SDS011;29429;51.074;13.764;2023-04-01T18:51:01;0.80;;;0.40;;
43801;SDS011;29429;51.074;13.764;2023-04-01T18:56:39;0.95;;;0.60;;
43801;SDS011;29429;51.074;13.764;2023-04-01T18:59:21;1.00;;;0.52;;
43801;SDS011;29429;51.074;13.764;2023-04-01T19:05:08;1.00;;;0.52;;
43801;SDS011;29429;51.074;13.764;2023-04-01T19:08:27;1.13;;;0.50;;
43801;SDS011;29429;51.074;13.764;2023-04-01T19:11:54;1.15;;;0.60;;
43801;SDS011;29429;51.074;13.764;2023-04-01T19:15:08;0.85;;;0.32;;
43801;SDS011;29429;51.074;13.764;2023-04-01T19:27:35;4.13;;;0.45;;
43801;SDS011;29429;51.074;13.764;2023-04-01T19:34:24;1.42;;;0.70;;
43801;SDS011;29429;51.074;13.764;2023-04-01T19:37:22;2.55;;;0.80;;
43801;SDS011;29429;51.074;13.764;2023-04-01T19:40:52;1.60;;;0.65;;
43801;SDS011;29429;51.074;13.764;2023-04-01T19:43:52;1.42;;;0.60;;
43801;SDS011;29429;51.074;13.764;2023-04-01T20:00:36;2.38;;;0.95;;
43801;SDS011;29429;51.074;13.764;2023-04-01T20:06:39;2.33;;;1.33;;
43801;SDS011;29429;51.074;13.764;2023-04-01T20:09:40;2.90;;;1.73;;
43801;SDS011;29429;51.074;13.764;2023-04-01T20:16:18;2.05;;;1.45;;
43801;SDS011;29429;51.074;13.764;2023-04-01T20:34:04;1.45;;;1.17;;
43801;SDS011;29429;51.074;13.764;2023-04-01T20:37:32;2.33;;;1.48;;
43801;SDS011;29429;51.074;13.764;2023-04-01T20:40:30;2.55;;;1.45;;
43801;SDS011;29429;51.074;13.764;2023-04-01T21:00:11;3.03;;;1.77;;
43801;SDS011;29429;51.074;13.764;2023-04-01T21:20:26;3.65;;;2.33;;
43801;SDS011;29429;51.074;13.764;2023-04-01T21:23:38;3.03;;;2.53;;
43801;SDS011;29429;51.074;13.764;2023-04-01T21:37:26;4.07;;;2.40;;
43801;SDS011;29429;51.074;13.764;2023-04-01T21:40:48;2.17;;;1.90;;
43801;SDS011;29429;51.074;13.764;2023-04-01T21:50:41;2.85;;;1.35;;
43801;SDS011;29429;51.074;13.764;2023-04-01T22:05:22;2.58;;;1.50;;
43801;SDS011;29429;51.074;13.764;2023-04-01T22:11:30;2.60;;;1.80;;
43801;SDS011;29429;51.074;13.764;2023-04-01T22:20:59;4.05;;;2.70;;
43801;SDS011;29429;51.074;13.764;2023-04-01T22:23:55;4.55;;;3.10;;
43801;SDS011;29429;51.074;13.764;2023-04-01T22:30:27;4.05;;;3.00;;
43801;SDS011;29429;51.074;13.764;2023-04-01T22:36:57;6.55;;;3.65;;
43801;SDS011;29429;51.074;13.764;2023-04-01T22:39:51;4.57;;;3.60;;
43801;SDS011;29429;51.074;13.764;2023-04-01T22:43:01;5.85;;;3.38;;
43801;SDS011;29429;51.074;13.764;2023-04-01T22:48:46;7.05;;;4.10;;
43801;SDS011;29429;51.074;13.764;2023-04-01T22:52:06;6.25;;;3.85;;
43801;SDS011;29429;51.074;13.764;2023-04-01T22:54:48;8.25;;;4.78;;
43801;SDS011;29429;51.074;13.764;2023-04-01T22:57:42;6.03;;;4.32;;
43801;SDS011;29429;51.074;13.764;2023-04-01T23:03:55;7.13;;;4.82;;
43801;SDS011;29429;51.074;13.764;2023-04-01T23:06:35;6.40;;;4.38;;
43801;SDS011;29429;51.074;13.764;2023-04-01T23:09:33;5.07;;;3.75;;
43801;SDS011;29429;51.074;13.764;2023-04-01T23:12:05;5.45;;;4.03;;
